Yakima, Washington
Current Conditions -  °F | °C
As of 4:53 PM on Sunday 23 Nov 2014 (Local Time) from KYKM Reporting Station
Clear Clear  
Wind Chill: 44°   Ceiling: Unl
Heat Index: 47°   Visibility: 10mi
Dew Point: 31°   Wind: 6mph
Humidity: 54%   Direction: 230°SW
Pressure: 30.16"   Gusts: NA
Location:  46.6°N, 120.5°W
Report Text: KYKM 240053Z 23005KT 10SM CLR 08/M01 A3016 RMK AO2 SLP219 T00831006
Loading
Personal Weather Stations






























Interactive Weather Map New forecast layout! Learn more

10-Day Weather Forecast

Advertisements
Track Severe Weather on mobile